Hlavní strana
METAR-TAF:

METAR-TAF

Letiště :

Greenville, Jižní Karolína, Spojené státy americké

zeměpisná šířka: 34-45-30N, zeměpisná délka: 082-22-35W, výška: 291 m

Aktuální stav počasí

Zpráva byla vytvořena před 58 minutami, v 23:47 UTC
Jihojihozápadní vítr 7 kt
Teplota 16°C
Vlhkost vzduchu 100%
Tlak 998 hPa
Viditelnost: 16.1 km
Polojasno ve výšce 4200 ft
Oblačno až skoro zataženo ve výšce 5500 ft

METAR: KGYH 192347Z 20007KT 10SM SCT042 BKN055 16/16 A2947

Čas: 20:45 (00:45 UTC)


TAF: chybějící

Stav a předpovědi počasí z více než 4 000 letišť (zprávy METAR a TAF).

Červené a žluté tečky na mapě představují dostupné meteorologické stanice.

Když kurzor umístíte na tečku, zobrazí se název stanice.

Pak kliknutím zobrazíte stav a předpověď počasí.

Chcete-li změnit mapu, kliknutím na zelené tlačítko se znaménkem +mapu přiblížíte, kliknutím na zelené tlačítko se znaménkem – mapu oddálíte a kliknutím na zelené šipky přejdete na sousední mapy.


METAR-TAF: